Terminal Aerodrome Forecast
Issued by NWS

Home | Current Version | Previous Version | Text Only | Print | Product List | Glossary On
Versions: 1 2 3 4 5 6 7 8 9 10 11 12 13 14
000
FTUS45 KCYS 200520
TAFLAR
TAF
KLAR 200520Z 2006/2106 29010KT P6SM SCT025 OVC080
     FM201400 28020G28KT P6SM SCT200
     FM201800 25025G40KT P6SM SCT200
     FM210100 23015G25KT P6SM BKN200=

USA.gov is the U.S. government's official web portal to all federal, state and local government web resources and services.